createdAt,value
2023-02-09T00:01:30.255Z,26.98
2023-02-09T00:04:00.670Z,27.23
2023-02-09T00:06:30.020Z,27.20
2023-02-09T00:08:58.477Z,27.23
2023-02-09T00:11:47.565Z,25.38
2023-02-09T00:14:17.904Z,24.63
2023-02-09T00:16:46.275Z,23.55
2023-02-09T00:19:14.443Z,23.90
2023-02-09T00:21:41.997Z,23.50
2023-02-09T00:24:12.678Z,23.60
2023-02-09T00:26:40.806Z,22.63
2023-02-09T00:29:09.562Z,22.02
2023-02-09T00:31:37.008Z,23.60
2023-02-09T00:34:05.497Z,22.50
2023-02-09T00:36:33.500Z,21.52
2023-02-09T00:39:01.474Z,21.45
2023-02-09T00:41:47.702Z,20.83
2023-02-09T00:44:15.912Z,20.70
2023-02-09T00:46:43.362Z,20.70
2023-02-09T00:49:10.907Z,20.25
2023-02-09T00:51:38.243Z,20.38
2023-02-09T00:54:05.646Z,21.50
2023-02-09T00:56:33.050Z,20.30
2023-02-09T00:59:00.464Z,20.52
2023-02-09T01:01:27.831Z,20.50
2023-02-09T01:03:55.585Z,20.70
2023-02-09T01:06:23.020Z,19.52
2023-02-09T01:08:50.915Z,20.50
2023-02-09T01:11:18.740Z,19.73
2023-02-09T01:13:46.448Z,18.98
2023-02-09T01:16:16.513Z,18.52
2023-02-09T01:18:44.617Z,16.85
2023-02-09T01:21:17.596Z,17.55
2023-02-09T01:23:46.120Z,18.13
2023-02-09T01:26:14.941Z,17.80
2023-02-09T01:28:42.975Z,17.48
2023-02-09T01:31:31.729Z,18.23
2023-02-09T01:34:00.979Z,17.08
2023-02-09T01:36:30.325Z,17.67
2023-02-09T01:38:59.872Z,16.17
2023-02-09T01:41:28.030Z,17.60
2023-02-09T01:44:05.859Z,16.95
2023-02-09T01:46:35.163Z,16.85
2023-02-09T01:49:12.407Z,16.75
2023-02-09T01:51:58.263Z,16.80
2023-02-09T01:54:29.898Z,16.38
2023-02-09T01:57:03.441Z,16.40
2023-02-09T01:59:30.847Z,16.10
2023-02-09T02:01:58.245Z,16.52
2023-02-09T02:04:25.585Z,16.33
2023-02-09T02:06:55.238Z,16.45
2023-02-09T02:09:22.740Z,17.33
2023-02-09T02:11:50.066Z,16.58
2023-02-09T02:14:37.554Z,17.38
2023-02-09T02:17:38.840Z,17.70
2023-02-09T02:20:28.016Z,16.00
2023-02-09T02:23:22.510Z,17.92
2023-02-09T02:26:22.411Z,16.92
2023-02-09T02:32:06.512Z,16.92
2023-02-09T02:34:46.063Z,17.05
2023-02-09T02:37:19.268Z,15.90
2023-02-09T02:39:52.728Z,16.05
2023-02-09T02:42:45.612Z,16.30
2023-02-09T02:45:34.211Z,15.90
2023-02-09T02:48:36.900Z,15.25
2023-02-09T02:51:16.101Z,15.27
2023-02-09T02:53:48.893Z,15.05
2023-02-09T02:56:19.781Z,15.10
2023-02-09T02:58:49.237Z,14.23
2023-02-09T03:01:21.269Z,14.27
2023-02-09T03:03:48.955Z,14.55
2023-02-09T03:06:17.048Z,15.07
2023-02-09T03:08:54.128Z,14.88
2023-02-09T03:11:23.639Z,15.35
2023-02-09T03:14:00.040Z,14.65
2023-02-09T03:16:44.027Z,16.10
2023-02-09T03:19:23.403Z,14.63
2023-02-09T03:22:00.852Z,15.27
2023-02-09T03:24:44.647Z,15.10
2023-02-09T03:27:15.863Z,15.30
2023-02-09T03:29:46.065Z,15.15
2023-02-09T03:32:14.521Z,15.38
2023-02-09T03:34:42.280Z,17.75
2023-02-09T03:37:09.670Z,18.90
2023-02-09T03:39:37.447Z,19.48
2023-02-09T03:42:04.976Z,20.38
2023-02-09T03:44:32.199Z,21.10
2023-02-09T03:47:01.487Z,20.63
2023-02-09T03:49:34.059Z,20.30
2023-02-09T03:52:02.339Z,19.67
2023-02-09T03:54:30.996Z,19.38
2023-02-09T03:57:00.058Z,19.02
2023-02-09T03:59:28.553Z,20.30
2023-02-09T04:01:58.130Z,19.30
2023-02-09T04:04:26.512Z,18.02
2023-02-09T04:06:53.968Z,16.90
2023-02-09T04:09:21.636Z,17.95
2023-02-09T04:11:49.507Z,17.08
2023-02-09T04:14:17.248Z,16.50
2023-02-09T04:16:44.819Z,15.70
2023-02-09T04:19:12.410Z,15.88
2023-02-09T04:21:39.968Z,16.45
2023-02-09T04:24:07.632Z,15.80
2023-02-09T04:26:35.868Z,16.17
2023-02-09T04:29:03.971Z,15.75
2023-02-09T04:31:31.730Z,14.43
2023-02-09T04:33:59.108Z,15.00
2023-02-09T04:36:26.411Z,15.50
2023-02-09T04:38:53.792Z,15.43
2023-02-09T04:41:21.141Z,15.85
2023-02-09T04:43:48.674Z,15.13
2023-02-09T04:46:16.992Z,16.15
2023-02-09T04:48:45.142Z,15.18
2023-02-09T04:51:13.136Z,15.60
2023-02-09T04:53:40.495Z,15.32
2023-02-09T04:56:07.985Z,15.70
2023-02-09T04:58:53.768Z,16.17
2023-02-09T05:01:23.555Z,15.82
2023-02-09T05:06:19.069Z,16.70
2023-02-09T05:08:46.354Z,17.98
2023-02-09T05:11:13.637Z,17.13
2023-02-09T05:13:41.446Z,17.52
2023-02-09T05:16:11.648Z,18.58
2023-02-09T05:18:39.002Z,18.17
2023-02-09T05:21:06.382Z,18.13
2023-02-09T05:23:33.628Z,18.20
2023-02-09T05:26:01.228Z,18.80
2023-02-09T05:28:28.634Z,18.27
2023-02-09T05:30:56.023Z,17.70
2023-02-09T05:33:24.644Z,18.75
2023-02-09T05:35:52.668Z,17.98
2023-02-09T05:38:20.146Z,17.73
2023-02-09T05:40:49.635Z,19.02
2023-02-09T05:43:24.442Z,19.17
2023-02-09T05:45:52.045Z,19.35
2023-02-09T05:48:19.398Z,19.58
2023-02-09T05:50:47.984Z,19.40
2023-02-09T05:53:16.490Z,18.75
2023-02-09T05:55:44.022Z,19.35
2023-02-09T05:58:11.345Z,18.58
2023-02-09T06:00:38.785Z,18.63
2023-02-09T06:03:06.200Z,20.02
2023-02-09T06:05:33.622Z,19.23
2023-02-09T06:08:01.008Z,18.63
2023-02-09T06:10:28.383Z,19.27
2023-02-09T06:12:55.726Z,19.83
2023-02-09T06:15:23.181Z,19.90
2023-02-09T06:17:50.516Z,20.20
2023-02-09T06:20:18.013Z,20.30
2023-02-09T06:22:45.279Z,20.35
2023-02-09T06:25:12.842Z,20.75
2023-02-09T06:27:40.314Z,21.05
2023-02-09T06:30:08.177Z,20.45
2023-02-09T06:32:35.677Z,21.45
2023-02-09T06:35:02.973Z,20.65
2023-02-09T06:37:34.155Z,20.90
2023-02-09T06:40:01.519Z,21.23
2023-02-09T06:42:44.008Z,22.05
2023-02-09T06:45:14.309Z,21.08
2023-02-09T06:47:42.761Z,22.00
2023-02-09T06:50:11.507Z,21.85
2023-02-09T06:52:39.005Z,21.40
2023-02-09T06:55:07.158Z,22.83
2023-02-09T06:57:35.134Z,21.52
2023-02-09T07:00:07.392Z,22.73
2023-02-09T07:02:35.557Z,21.83
2023-02-09T07:05:02.823Z,21.52
2023-02-09T07:07:30.191Z,25.58
2023-02-09T07:09:57.475Z,24.77
2023-02-09T07:12:25.261Z,23.88
2023-02-09T07:14:52.895Z,21.77
2023-02-09T07:17:20.218Z,22.50
2023-02-09T07:19:47.903Z,21.27
2023-02-09T07:22:15.425Z,20.92
2023-02-09T07:24:42.832Z,21.10
2023-02-09T07:27:10.090Z,21.60
2023-02-09T07:29:37.366Z,20.63
2023-02-09T07:32:07.128Z,20.70
2023-02-09T07:34:35.439Z,22.17
2023-02-09T07:37:03.814Z,21.00
2023-02-09T07:39:31.678Z,21.27
2023-02-09T07:41:59.171Z,21.98
2023-02-09T07:44:40.401Z,22.85
2023-02-09T07:47:08.005Z,22.55
2023-02-09T07:49:38.599Z,23.70
2023-02-09T07:52:06.086Z,23.58
2023-02-09T07:54:33.535Z,23.90
2023-02-09T07:57:00.882Z,24.02
2023-02-09T07:59:28.215Z,23.83
2023-02-09T08:01:55.687Z,24.02
2023-02-09T08:04:24.048Z,24.63
2023-02-09T08:06:53.210Z,23.70
2023-02-09T08:09:20.549Z,24.27
2023-02-09T08:12:02.686Z,25.80
2023-02-09T08:14:39.817Z,25.25
2023-02-09T08:17:23.232Z,24.52
2023-02-09T08:19:54.678Z,24.00
2023-02-09T08:22:24.369Z,25.05
2023-02-09T08:24:51.932Z,24.48
2023-02-09T08:27:19.235Z,25.25
2023-02-09T08:29:48.864Z,23.98
2023-02-09T08:32:16.468Z,25.10
2023-02-09T08:34:43.814Z,24.55
2023-02-09T08:37:20.550Z,24.48
2023-02-09T08:39:48.257Z,24.10
2023-02-09T08:42:15.545Z,24.00
2023-02-09T08:44:42.780Z,23.73
2023-02-09T08:47:13.517Z,23.17
2023-02-09T08:49:45.221Z,26.80
2023-02-09T08:52:15.390Z,31.35
2023-02-09T08:54:42.725Z,24.58
2023-02-09T08:57:10.264Z,24.73
2023-02-09T08:59:37.891Z,23.58
2023-02-09T09:02:05.207Z,24.42
2023-02-09T09:04:32.730Z,24.48
2023-02-09T09:07:00.730Z,24.67
2023-02-09T09:09:28.980Z,24.02
2023-02-09T09:11:57.204Z,23.20
2023-02-09T09:14:26.641Z,23.50
2023-02-09T09:16:57.380Z,24.25
2023-02-09T09:19:25.359Z,23.45
2023-02-09T09:21:52.873Z,22.70
2023-02-09T09:24:21.185Z,24.17
2023-02-09T09:26:48.741Z,21.92
2023-02-09T09:29:18.912Z,22.83
2023-02-09T09:31:46.435Z,21.85
2023-02-09T09:34:13.812Z,21.88
2023-02-09T09:36:41.109Z,20.92
2023-02-09T09:39:14.390Z,21.25
2023-02-09T09:41:44.701Z,20.58
2023-02-09T09:44:47.110Z,19.50
2023-02-09T09:47:24.451Z,19.63
2023-02-09T09:49:52.104Z,19.92
2023-02-09T09:52:29.319Z,20.00
2023-02-09T09:54:58.396Z,20.50
2023-02-09T09:57:27.977Z,20.90
2023-02-09T10:00:01.469Z,20.55
2023-02-09T10:02:33.674Z,19.92
2023-02-09T10:05:21.385Z,21.02
2023-02-09T10:08:06.083Z,20.67
2023-02-09T10:10:57.027Z,19.58
2023-02-09T10:13:26.508Z,22.15
2023-02-09T10:15:57.385Z,23.38
2023-02-09T10:18:27.898Z,23.40
2023-02-09T10:20:58.925Z,22.30
2023-02-09T10:23:29.125Z,21.85
2023-02-09T10:26:03.133Z,21.38
2023-02-09T10:28:33.310Z,22.33
2023-02-09T10:31:02.791Z,23.63
2023-02-09T10:33:38.819Z,35.70
2023-02-09T10:36:08.744Z,26.48
2023-02-09T10:41:09.106Z,23.02
2023-02-09T10:43:37.050Z,22.77
2023-02-09T10:46:20.237Z,23.60
2023-02-09T10:48:48.034Z,25.42
2023-02-09T10:51:28.896Z,24.75
2023-02-09T10:54:00.275Z,25.08
2023-02-09T10:56:35.970Z,25.05
2023-02-09T10:59:15.544Z,26.50
2023-02-09T11:01:44.745Z,27.05
2023-02-09T11:04:21.881Z,26.02
2023-02-09T11:06:56.694Z,26.63
2023-02-09T11:09:29.662Z,25.17
2023-02-09T11:11:57.205Z,25.67
2023-02-09T11:14:31.542Z,26.35
2023-02-09T11:17:17.695Z,26.27
2023-02-09T11:20:14.393Z,29.05
2023-02-09T11:22:47.733Z,27.17
2023-02-09T11:25:25.422Z,25.33
2023-02-09T11:27:58.691Z,25.45
2023-02-09T11:31:03.546Z,24.98
2023-02-09T11:33:40.470Z,23.73
2023-02-09T11:36:17.171Z,25.58
2023-02-09T11:38:51.538Z,25.58
2023-02-09T11:41:48.945Z,25.05
2023-02-09T11:44:42.699Z,25.67
2023-02-09T11:47:15.040Z,27.25
2023-02-09T11:49:48.968Z,27.30
2023-02-09T11:52:20.844Z,26.30
2023-02-09T11:54:52.164Z,25.30
2023-02-09T11:57:33.126Z,24.73
2023-02-09T12:00:05.175Z,24.60
2023-02-09T12:02:54.150Z,30.20
2023-02-09T12:05:22.832Z,24.45
2023-02-09T12:08:09.314Z,22.90
2023-02-09T12:11:19.222Z,22.33
2023-02-09T12:13:59.457Z,23.10
2023-02-09T12:16:33.206Z,24.02
2023-02-09T12:19:01.855Z,22.05
2023-02-09T12:21:34.405Z,22.23
2023-02-09T12:24:02.055Z,21.50
2023-02-09T12:26:44.168Z,24.95
2023-02-09T12:29:30.060Z,22.60
2023-02-09T12:32:06.903Z,23.60
2023-02-09T12:34:49.720Z,22.98
2023-02-09T12:37:27.455Z,22.15
2023-02-09T12:40:07.125Z,23.42
2023-02-09T12:42:53.654Z,22.75
2023-02-09T12:45:36.304Z,23.15
2023-02-09T12:48:09.727Z,24.05
2023-02-09T12:50:43.625Z,25.80
2023-02-09T12:53:31.970Z,23.40
2023-02-09T12:56:11.446Z,23.20
2023-02-09T12:58:44.722Z,27.73
2023-02-09T13:01:14.322Z,24.65
2023-02-09T13:03:49.292Z,24.30
2023-02-09T13:06:37.303Z,24.02
2023-02-09T13:09:08.727Z,23.50
2023-02-09T13:11:51.035Z,24.02
2023-02-09T13:14:19.477Z,23.92
2023-02-09T13:17:02.038Z,25.05
2023-02-09T13:19:47.678Z,24.55
2023-02-09T13:22:34.524Z,24.20
2023-02-09T13:25:16.918Z,25.02
2023-02-09T13:27:51.020Z,23.98
2023-02-09T13:30:31.578Z,23.55
2023-02-09T13:33:24.055Z,23.70
2023-02-09T13:35:57.826Z,23.90
2023-02-09T13:38:30.149Z,23.60
2023-02-09T13:41:00.509Z,23.05
2023-02-09T13:43:33.053Z,22.63
2023-02-09T13:46:01.951Z,22.17
2023-02-09T13:48:33.229Z,19.15
2023-02-09T13:51:03.647Z,22.98
2023-02-09T13:53:31.746Z,22.42
2023-02-09T13:56:00.531Z,22.58
2023-02-09T13:58:31.283Z,22.98
2023-02-09T14:01:11.577Z,23.30
2023-02-09T14:03:58.109Z,22.77
2023-02-09T14:06:36.131Z,21.43
2023-02-09T14:09:04.780Z,23.13
2023-02-09T14:11:42.849Z,24.08
2023-02-09T14:14:11.392Z,22.23
2023-02-09T14:16:52.565Z,22.33
2023-02-09T14:19:31.874Z,22.00
2023-02-09T14:21:59.236Z,21.08
2023-02-09T14:24:28.615Z,20.75
2023-02-09T14:27:15.118Z,20.35
2023-02-09T14:29:46.232Z,20.15
2023-02-09T14:32:32.897Z,20.13
2023-02-09T14:35:41.834Z,20.45
2023-02-09T14:38:43.992Z,20.00
2023-02-09T14:41:31.611Z,19.58
2023-02-09T14:44:03.609Z,20.45
2023-02-09T14:46:47.505Z,19.88
2023-02-09T14:49:14.886Z,20.90
2023-02-09T14:51:42.983Z,21.58
2023-02-09T14:54:24.170Z,22.15
2023-02-09T14:56:52.999Z,21.35
2023-02-09T14:59:21.882Z,19.63
2023-02-09T15:01:52.476Z,19.40
2023-02-09T15:04:20.311Z,20.33
2023-02-09T15:06:58.962Z,19.55
2023-02-09T15:09:31.686Z,19.50
2023-02-09T15:12:05.204Z,20.63
2023-02-09T15:14:41.589Z,20.40
2023-02-09T15:17:15.597Z,20.52
2023-02-09T15:19:43.614Z,21.17
2023-02-09T15:22:14.940Z,22.67
2023-02-09T15:24:43.593Z,22.27
2023-02-09T15:27:17.602Z,22.20
2023-02-09T15:29:45.156Z,23.45
2023-02-09T15:32:17.288Z,23.48
2023-02-09T15:34:44.864Z,23.02
2023-02-09T15:37:22.138Z,23.27
2023-02-09T15:39:51.191Z,25.13
2023-02-09T15:42:38.431Z,23.98
2023-02-09T15:45:40.349Z,24.10
2023-02-09T15:48:08.587Z,24.20
2023-02-09T15:50:39.170Z,23.95
2023-02-09T15:53:12.610Z,24.65
2023-02-09T15:55:40.258Z,23.98
2023-02-09T15:58:35.375Z,24.20
2023-02-09T16:01:04.214Z,23.40
2023-02-09T16:03:31.855Z,23.30
2023-02-09T16:06:04.052Z,23.02
2023-02-09T16:08:33.304Z,24.30
2023-02-09T16:11:02.167Z,23.70
2023-02-09T16:13:32.838Z,24.60
2023-02-09T16:16:14.794Z,27.42
2023-02-09T16:18:44.416Z,26.20
2023-02-09T16:21:33.738Z,25.80
2023-02-09T16:24:02.979Z,27.50
2023-02-09T16:26:31.099Z,26.55
2023-02-09T16:28:58.666Z,26.42
2023-02-09T16:31:26.383Z,26.10
2023-02-09T16:33:53.766Z,27.67
2023-02-09T16:36:23.855Z,27.63
2023-02-09T16:41:38.020Z,27.42
2023-02-09T16:44:17.027Z,26.10
2023-02-09T16:46:47.173Z,26.55
2023-02-09T16:49:34.617Z,26.65
2023-02-09T16:52:06.535Z,26.05
2023-02-09T16:54:41.155Z,29.10
2023-02-09T16:57:13.294Z,28.25
2023-02-09T16:59:40.820Z,28.50
2023-02-09T17:02:34.554Z,30.58
2023-02-09T17:05:05.773Z,30.70
2023-02-09T17:07:45.456Z,28.80
2023-02-09T17:10:22.992Z,30.98
2023-02-09T17:12:52.611Z,29.88
2023-02-09T17:15:30.183Z,30.58
2023-02-09T17:18:04.900Z,30.45
2023-02-09T17:20:40.568Z,29.75
2023-02-09T17:23:11.648Z,31.33
2023-02-09T17:25:39.046Z,32.28
2023-02-09T17:28:06.791Z,30.25
2023-02-09T17:30:35.286Z,31.63
2023-02-09T17:33:05.104Z,32.80
2023-02-09T17:36:03.564Z,30.17
2023-02-09T17:38:26.359Z,31.70
2023-02-09T17:40:55.233Z,31.02
2023-02-09T17:43:24.034Z,31.88
2023-02-09T17:45:52.210Z,32.17
2023-02-09T17:48:20.926Z,31.50
2023-02-09T17:50:51.832Z,31.67
2023-02-09T17:53:26.728Z,30.95
2023-02-09T17:55:56.580Z,31.90
2023-02-09T17:58:24.093Z,33.17
2023-02-09T18:00:53.185Z,30.85
2023-02-09T18:03:22.179Z,31.23
2023-02-09T18:06:01.550Z,31.17
2023-02-09T18:08:29.203Z,32.67
2023-02-09T18:10:58.652Z,32.08
2023-02-09T18:13:27.135Z,32.80
2023-02-09T18:15:54.759Z,32.45
2023-02-09T18:18:24.193Z,34.22
2023-02-09T18:20:52.338Z,34.03
2023-02-09T18:23:19.851Z,33.60
2023-02-09T18:25:49.665Z,33.80
2023-02-09T18:30:44.922Z,36.65
2023-02-09T18:33:12.661Z,35.33
2023-02-09T18:35:41.736Z,34.70
2023-02-09T18:38:10.735Z,33.75
2023-02-09T18:40:39.152Z,32.03
2023-02-09T18:43:07.434Z,33.28
2023-02-09T18:45:35.678Z,35.80
2023-02-09T18:48:03.109Z,34.92
2023-02-09T18:50:31.941Z,43.10
2023-02-09T18:53:03.835Z,44.45
2023-02-09T18:55:34.049Z,45.50
2023-02-09T18:58:04.330Z,44.00
2023-02-09T19:00:32.486Z,38.85
2023-02-09T19:02:59.984Z,36.70
2023-02-09T19:05:30.075Z,36.40
2023-02-09T19:10:27.627Z,36.35
2023-02-09T19:12:55.513Z,37.30
2023-02-09T19:15:25.696Z,39.13
2023-02-09T19:17:56.457Z,39.10
2023-02-09T19:20:26.644Z,38.25
2023-02-09T19:22:54.786Z,38.45
2023-02-09T19:25:25.314Z,40.38
2023-02-09T19:27:53.310Z,43.97
2023-02-09T19:30:25.090Z,45.72
2023-02-09T19:32:54.094Z,42.88
2023-02-09T19:35:22.878Z,38.58
2023-02-09T19:37:54.542Z,39.85
2023-02-09T19:40:33.693Z,39.13
2023-02-09T19:43:01.252Z,38.47
2023-02-09T19:45:36.456Z,38.72
2023-02-09T19:48:05.477Z,39.90
2023-02-09T19:50:36.759Z,38.00
2023-02-09T19:53:05.725Z,38.55
2023-02-09T19:55:33.527Z,37.47
2023-02-09T19:58:01.112Z,38.60
2023-02-09T20:00:28.394Z,39.20
2023-02-09T20:02:55.911Z,38.30
2023-02-09T20:05:23.224Z,42.80
2023-02-09T20:07:53.180Z,42.60
2023-02-09T20:12:48.924Z,44.13
2023-02-09T20:15:16.525Z,46.08
2023-02-09T20:17:44.365Z,47.00
2023-02-09T20:20:12.298Z,49.67
2023-02-09T20:22:39.681Z,53.63
2023-02-09T20:25:07.387Z,57.70
2023-02-09T20:27:35.052Z,50.70
2023-02-09T20:30:05.383Z,47.33
2023-02-09T20:32:33.756Z,46.17
2023-02-09T20:35:01.025Z,46.15
2023-02-09T20:37:28.418Z,45.95
2023-02-09T20:39:55.962Z,44.05
2023-02-09T20:42:42.173Z,44.08
2023-02-09T20:45:32.759Z,45.58
2023-02-09T20:48:00.139Z,45.03
2023-02-09T20:50:27.602Z,45.83
2023-02-09T20:52:54.895Z,47.83
2023-02-09T20:55:22.890Z,47.55
2023-02-09T20:57:50.550Z,47.88
2023-02-09T21:00:17.974Z,46.25
2023-02-09T21:02:45.367Z,46.35
2023-02-09T21:05:12.754Z,48.63
2023-02-09T21:07:40.076Z,48.67
2023-02-09T21:10:07.698Z,47.10
2023-02-09T21:12:35.062Z,46.08
2023-02-09T21:15:02.376Z,49.15
2023-02-09T21:17:29.813Z,46.67
2023-02-09T21:19:57.274Z,46.60
2023-02-09T21:22:24.670Z,48.42
2023-02-09T21:24:52.049Z,48.03
2023-02-09T21:27:19.486Z,51.03
2023-02-09T21:29:46.802Z,48.75
2023-02-09T21:32:14.077Z,47.90
2023-02-09T21:34:42.664Z,46.33
2023-02-09T21:37:14.046Z,46.45
2023-02-09T21:39:41.769Z,46.22
2023-02-09T21:42:28.826Z,45.83
2023-02-09T21:44:56.766Z,51.25
2023-02-09T21:47:38.119Z,52.35
2023-02-09T21:50:07.833Z,51.00
2023-02-09T21:52:35.631Z,51.60
2023-02-09T21:55:04.158Z,49.03
2023-02-09T21:57:31.699Z,49.60
2023-02-09T22:00:00.041Z,50.88
2023-02-09T22:02:27.961Z,47.33
2023-02-09T22:04:55.527Z,50.13
2023-02-09T22:07:23.396Z,49.20
2023-02-09T22:09:50.790Z,49.75
2023-02-09T22:12:18.173Z,54.75
2023-02-09T22:14:45.443Z,49.08
2023-02-09T22:17:12.788Z,50.13
2023-02-09T22:19:41.490Z,49.30
2023-02-09T22:22:10.109Z,48.75
2023-02-09T22:24:37.998Z,46.63
2023-02-09T22:27:05.304Z,49.10
2023-02-09T22:29:35.414Z,49.03
2023-02-09T22:32:03.263Z,48.53
2023-02-09T22:34:31.331Z,48.60
2023-02-09T22:36:58.608Z,48.03
2023-02-09T22:39:25.908Z,48.47
2023-02-09T22:41:57.979Z,50.10
2023-02-09T22:44:27.905Z,50.08
2023-02-09T22:46:55.232Z,47.88
2023-02-09T22:49:26.770Z,49.88
2023-02-09T22:51:54.133Z,48.72
2023-02-09T22:54:21.467Z,47.05
2023-02-09T22:56:49.026Z,54.78
2023-02-09T22:59:16.291Z,61.58
2023-02-09T23:01:44.265Z,56.58
2023-02-09T23:04:11.697Z,49.25
2023-02-09T23:06:39.178Z,49.15
2023-02-09T23:09:07.520Z,49.45
2023-02-09T23:11:35.308Z,49.58
2023-02-09T23:14:11.098Z,49.50
2023-02-09T23:16:40.176Z,50.92
2023-02-09T23:19:09.921Z,49.22
2023-02-09T23:21:39.329Z,51.78
2023-02-09T23:24:07.086Z,50.83
2023-02-09T23:26:34.922Z,49.15
2023-02-09T23:29:04.524Z,48.78
2023-02-09T23:31:32.298Z,49.05
2023-02-09T23:33:59.692Z,49.63
2023-02-09T23:36:29.560Z,47.22
2023-02-09T23:39:05.769Z,48.15
2023-02-09T23:41:33.937Z,48.83
2023-02-09T23:44:01.765Z,48.13
2023-02-09T23:46:29.418Z,47.03
2023-02-09T23:48:57.427Z,47.45
2023-02-09T23:51:28.429Z,47.08
2023-02-09T23:53:57.453Z,48.13
2023-02-09T23:56:25.476Z,45.67
2023-02-09T23:58:53.102Z,46.50
